createdAt,value
2023-03-04T00:01:21.471Z,100474.06
2023-03-04T00:04:28.013Z,100474.94
2023-03-04T00:07:33.111Z,100467.38
2023-03-04T00:10:41.621Z,100469.84
2023-03-04T00:13:46.436Z,100470.66
2023-03-04T00:16:51.663Z,100459.78
2023-03-04T00:19:58.209Z,100470.66
2023-03-04T00:23:03.602Z,100453.91
2023-03-04T00:26:09.672Z,100472.34
2023-03-04T00:29:15.958Z,100456.41
2023-03-04T00:32:20.798Z,100464.78
2023-03-04T00:35:27.556Z,100461.41
2023-03-04T00:38:33.026Z,100453.84
2023-03-04T00:41:38.111Z,100455.53
2023-03-04T00:44:43.112Z,100455.53
2023-03-04T00:47:48.247Z,100456.34
2023-03-04T00:50:55.079Z,100456.31
2023-03-04T00:54:01.024Z,100456.31
2023-03-04T00:57:06.169Z,100455.44
2023-03-04T01:00:14.172Z,100456.31
2023-03-04T01:03:19.627Z,100458.78
2023-03-04T01:06:26.146Z,100460.44
2023-03-04T01:09:31.276Z,100467.97
2023-03-04T01:12:36.791Z,100462.94
2023-03-04T01:15:41.875Z,100453.72
2023-03-04T01:18:47.828Z,100447.81
2023-03-04T01:21:55.443Z,100477.97
2023-03-04T01:25:00.658Z,100466.28
2023-03-04T01:28:06.117Z,100466.25
2023-03-04T01:31:11.610Z,100474.56
2023-03-04T01:34:19.242Z,100460.31
2023-03-04T01:37:25.932Z,100467.84
2023-03-04T01:40:34.226Z,100471.16
2023-03-04T01:43:42.031Z,100478.69
2023-03-04T01:46:51.802Z,100461.06
2023-03-04T01:49:58.473Z,100473.63
2023-03-04T01:53:06.337Z,100459.41
2023-03-04T01:56:18.362Z,100459.41
2023-03-04T01:59:24.468Z,100470.22
2023-03-04T02:02:29.727Z,100455.97
2023-03-04T02:05:35.282Z,100455.94
2023-03-04T02:08:41.915Z,100460.97
2023-03-04T02:11:49.227Z,100454.25
2023-03-04T02:14:54.742Z,100447.47
2023-03-04T02:17:59.896Z,100434.91
2023-03-04T02:21:09.391Z,100450.78
2023-03-04T02:24:19.328Z,100435.72
2023-03-04T02:27:25.924Z,100450.81
2023-03-04T02:30:31.216Z,100449.13
2023-03-04T02:33:37.761Z,100434.81
2023-03-04T02:36:43.407Z,100450.69
2023-03-04T02:39:50.401Z,100442.31
2023-03-04T02:42:56.917Z,100461.66
2023-03-04T02:46:02.372Z,100460.81
2023-03-04T02:49:07.552Z,100449.09
2023-03-04T02:52:18.983Z,100444.84
2023-03-04T02:55:24.276Z,100447.31
2023-03-04T02:58:31.605Z,100444.81
2023-03-04T03:01:36.586Z,100467.41
2023-03-04T03:04:42.314Z,100457.34
2023-03-04T03:07:50.740Z,100454.03
2023-03-04T03:10:56.372Z,100471.53
2023-03-04T03:14:04.013Z,100473.16
2023-03-04T03:17:09.314Z,100470.66
2023-03-04T03:20:16.260Z,100473.97
2023-03-04T03:23:21.836Z,100464.75
2023-03-04T03:26:26.706Z,100476.44
2023-03-04T03:29:34.675Z,100450.44
2023-03-04T03:32:39.826Z,100440.34
2023-03-04T03:35:45.904Z,100437.00
2023-03-04T03:38:50.995Z,100460.31
2023-03-04T03:41:56.217Z,100450.28
2023-03-04T03:45:02.691Z,100442.72
2023-03-04T03:48:08.179Z,100446.88
2023-03-04T03:51:13.577Z,100424.28
2023-03-04T03:54:18.591Z,100427.59
2023-03-04T03:57:23.698Z,100439.28
2023-03-04T04:00:30.922Z,100430.09
2023-03-04T04:03:36.086Z,100466.00
2023-03-04T04:06:41.674Z,100449.28
2023-03-04T04:09:46.738Z,100454.19
2023-03-04T04:12:51.926Z,100444.97
2023-03-04T04:15:59.647Z,100459.16
2023-03-04T04:19:05.473Z,100464.94
2023-03-04T04:22:16.857Z,100477.38
2023-03-04T04:25:21.943Z,100442.22
2023-03-04T04:28:27.307Z,100450.50
2023-03-04T04:31:34.001Z,100472.19
2023-03-04T04:34:39.420Z,100460.47
2023-03-04T04:37:44.438Z,100476.28
2023-03-04T04:40:49.882Z,100472.88
2023-03-04T04:43:55.537Z,100478.66
2023-03-04T04:47:02.054Z,100467.00
2023-03-04T04:50:08.059Z,100461.13
2023-03-04T04:53:14.993Z,100470.22
2023-03-04T04:56:21.957Z,100494.44
2023-03-04T04:59:27.170Z,100532.00
2023-03-04T05:02:36.441Z,100504.34
2023-03-04T05:05:41.493Z,100505.16
2023-03-04T05:08:46.761Z,100488.47
2023-03-04T05:11:51.907Z,100484.31
2023-03-04T05:14:57.163Z,100502.53
2023-03-04T05:18:03.742Z,100495.81
2023-03-04T05:21:09.276Z,100508.38
2023-03-04T05:24:14.704Z,100509.13
2023-03-04T05:27:20.175Z,100519.09
2023-03-04T05:30:25.308Z,100491.44
2023-03-04T05:33:32.678Z,100508.97
2023-03-04T05:36:37.857Z,100518.16
2023-03-04T05:39:43.117Z,100514.78
2023-03-04T05:42:48.164Z,100500.72
2023-03-04T05:45:53.415Z,100521.50
2023-03-04T05:48:59.902Z,100527.28
2023-03-04T05:52:05.313Z,100543.94
2023-03-04T05:55:12.713Z,100543.91
2023-03-04T05:58:18.398Z,100541.38
2023-03-04T06:01:23.778Z,100550.66
2023-03-04T06:04:30.711Z,100550.66
2023-03-04T06:07:35.985Z,100553.97
2023-03-04T06:10:41.872Z,100554.81
2023-03-04T06:13:49.525Z,100556.41
2023-03-04T06:16:54.417Z,100553.03
2023-03-04T06:20:01.045Z,100557.97
2023-03-04T06:23:08.632Z,100572.13
2023-03-04T06:26:15.742Z,100577.19
2023-03-04T06:29:21.355Z,100565.47
2023-03-04T06:32:27.596Z,100583.72
2023-03-04T06:35:34.668Z,100579.66
2023-03-04T06:38:41.169Z,100583.03
2023-03-04T06:41:46.441Z,100600.44
2023-03-04T06:44:51.894Z,100593.94
2023-03-04T06:47:57.042Z,100601.41
2023-03-04T06:51:08.860Z,100582.22
2023-03-04T06:54:14.350Z,100603.97
2023-03-04T06:57:21.818Z,100615.66
2023-03-04T07:00:27.245Z,100578.38
2023-03-04T07:03:32.423Z,100590.16
2023-03-04T07:06:39.031Z,100587.66
2023-03-04T07:09:44.507Z,100611.69
2023-03-04T07:12:49.822Z,100589.28
2023-03-04T07:15:55.498Z,100594.47
2023-03-04T07:19:00.852Z,100592.59
2023-03-04T07:22:07.203Z,100599.66
2023-03-04T07:25:16.644Z,100582.91
2023-03-04T07:28:21.554Z,100601.75
2023-03-04T07:31:30.012Z,100578.28
2023-03-04T07:34:35.196Z,100600.16
2023-03-04T07:37:42.017Z,100601.00
2023-03-04T07:40:46.895Z,100600.22
2023-03-04T07:43:52.701Z,100608.31
2023-03-04T07:46:57.824Z,100624.47
2023-03-04T07:50:02.772Z,100617.50
2023-03-04T07:53:09.414Z,100621.03
2023-03-04T07:56:16.174Z,100618.63
2023-03-04T07:59:22.432Z,100624.59
2023-03-04T08:02:27.552Z,100618.88
2023-03-04T08:05:32.827Z,100634.75
2023-03-04T08:08:39.797Z,100620.00
2023-03-04T08:11:45.474Z,100625.22
2023-03-04T08:14:50.884Z,100642.50
2023-03-04T08:17:56.346Z,100622.19
2023-03-04T08:21:01.907Z,100628.94
2023-03-04T08:24:09.611Z,100635.84
2023-03-04T08:27:15.636Z,100611.47
2023-03-04T08:30:20.968Z,100632.41
2023-03-04T08:33:26.202Z,100642.31
2023-03-04T08:36:31.165Z,100649.06
2023-03-04T08:39:37.908Z,100621.72
2023-03-04T08:42:43.325Z,100642.81
2023-03-04T08:45:48.796Z,100645.41
2023-03-04T08:48:53.979Z,100643.84
2023-03-04T08:51:59.162Z,100642.28
2023-03-04T08:55:06.157Z,100655.91
2023-03-04T08:58:13.263Z,100654.09
2023-03-04T09:01:18.675Z,100692.09
2023-03-04T09:04:24.644Z,100680.28
2023-03-04T09:07:29.978Z,100676.34
2023-03-04T09:10:36.712Z,100698.09
2023-03-04T09:13:45.261Z,100680.50
2023-03-04T09:16:50.361Z,100684.50
2023-03-04T09:19:56.778Z,100683.41
2023-03-04T09:23:02.235Z,100682.56
2023-03-04T09:26:18.902Z,100678.41
2023-03-04T09:29:25.002Z,100659.91
2023-03-04T09:32:31.262Z,100672.09
2023-03-04T09:35:36.669Z,100686.56
2023-03-04T09:38:42.716Z,100679.81
2023-03-04T09:41:53.340Z,100660.59
2023-03-04T09:44:59.305Z,100659.97
2023-03-04T09:48:04.633Z,100665.88
2023-03-04T09:51:21.551Z,100656.00
2023-03-04T09:54:34.977Z,100661.84
2023-03-04T09:57:50.313Z,100665.31
2023-03-04T10:00:58.199Z,100662.91
2023-03-04T10:04:08.089Z,100657.09
2023-03-04T10:07:19.662Z,100671.31
2023-03-04T10:10:28.883Z,100669.78
2023-03-04T10:13:39.850Z,100668.16
2023-03-04T10:16:48.697Z,100662.50
2023-03-04T10:19:58.262Z,100667.66
2023-03-04T10:23:12.440Z,100681.09
2023-03-04T10:26:21.490Z,100669.41
2023-03-04T10:29:27.963Z,100672.00
2023-03-04T10:32:33.121Z,100661.13
2023-03-04T10:35:39.102Z,100652.09
2023-03-04T10:38:44.525Z,100648.88
2023-03-04T10:42:01.400Z,100684.22
2023-03-04T10:45:23.208Z,100676.50
2023-03-04T10:48:30.489Z,100664.78
2023-03-04T10:51:44.846Z,100675.75
2023-03-04T10:54:53.005Z,100681.66
2023-03-04T10:58:02.552Z,100659.22
2023-03-04T11:01:12.187Z,100674.25
2023-03-04T11:04:19.902Z,100660.03
2023-03-04T11:07:26.438Z,100654.19
2023-03-04T11:10:33.254Z,100681.03
2023-03-04T11:13:38.547Z,100669.34
2023-03-04T11:16:55.357Z,100665.22
2023-03-04T11:20:08.472Z,100657.72
2023-03-04T11:23:17.805Z,100687.13
2023-03-04T11:26:27.901Z,100657.88
2023-03-04T11:29:36.858Z,100667.13
2023-03-04T11:32:47.171Z,100659.59
2023-03-04T11:36:09.730Z,100660.38
2023-03-04T11:39:21.761Z,100647.81
2023-03-04T11:42:34.515Z,100673.03
2023-03-04T11:46:00.824Z,100659.53
2023-03-04T11:49:22.703Z,100665.47
2023-03-04T11:52:40.453Z,100657.84
2023-03-04T11:56:01.536Z,100637.84
2023-03-04T11:59:32.005Z,100665.66
2023-03-04T12:02:45.071Z,100649.78
2023-03-04T12:06:00.639Z,100674.09
2023-03-04T12:09:16.163Z,100656.50
2023-03-04T12:12:33.411Z,100661.53
2023-03-04T12:15:45.095Z,100653.13
2023-03-04T12:19:01.994Z,100647.31
2023-03-04T12:22:20.319Z,100643.03
2023-03-04T12:25:43.826Z,100654.00
2023-03-04T12:28:57.868Z,100661.56
2023-03-04T12:32:08.276Z,100655.66
2023-03-04T12:35:26.008Z,100648.16
2023-03-04T12:38:50.188Z,100643.94
2023-03-04T12:42:02.016Z,100648.97
2023-03-04T12:49:28.366Z,100658.22
2023-03-04T12:52:43.648Z,100646.47
2023-03-04T12:55:52.255Z,100654.88
2023-03-04T12:58:58.342Z,100658.22
2023-03-04T13:02:19.926Z,100641.41
2023-03-04T13:05:41.903Z,100643.09
2023-03-04T13:09:03.969Z,100651.50
2023-03-04T13:12:17.069Z,100645.63
2023-03-04T13:15:37.097Z,100655.72
2023-03-04T13:18:45.185Z,100658.22
2023-03-04T13:21:54.584Z,100670.00
2023-03-04T13:25:01.204Z,100678.38
2023-03-04T13:28:26.225Z,100689.28
2023-03-04T13:31:32.197Z,100672.47
2023-03-04T13:34:49.496Z,100680.88
2023-03-04T13:38:00.042Z,100690.88
2023-03-04T13:41:16.250Z,100678.31
2023-03-04T13:44:58.723Z,100703.50
2023-03-04T13:48:06.374Z,100701.72
2023-03-04T13:51:28.596Z,100718.28
2023-03-04T13:54:35.221Z,100708.94
2023-03-04T13:57:49.663Z,100696.47
2023-03-04T14:00:57.611Z,100701.47
2023-03-04T14:04:03.731Z,100692.25
2023-03-04T14:07:26.091Z,100706.59
2023-03-04T14:10:31.400Z,100704.84
2023-03-04T14:13:37.319Z,100692.31
2023-03-04T14:16:50.503Z,100689.78
2023-03-04T14:19:55.772Z,100699.09
2023-03-04T14:23:02.548Z,100693.22
2023-03-04T14:26:11.763Z,100699.91
2023-03-04T14:29:25.051Z,100696.56
2023-03-04T14:32:32.144Z,100704.00
2023-03-04T14:35:40.113Z,100699.78
2023-03-04T14:38:48.065Z,100704.00
2023-03-04T14:41:54.057Z,100709.06
2023-03-04T14:45:00.882Z,100697.38
2023-03-04T14:48:10.024Z,100691.50
2023-03-04T14:51:32.978Z,100705.78
2023-03-04T14:54:39.134Z,100689.84
2023-03-04T14:57:46.041Z,100690.69
2023-03-04T15:00:51.265Z,100685.56
2023-03-04T15:04:00.914Z,100688.09
2023-03-04T15:07:06.632Z,100678.09
2023-03-04T15:10:14.126Z,100679.72
2023-03-04T15:13:39.254Z,100674.63
2023-03-04T15:16:58.203Z,100676.38
2023-03-04T15:20:27.600Z,100667.19
2023-03-04T15:23:35.913Z,100669.72
2023-03-04T15:26:43.401Z,100663.03
2023-03-04T15:29:49.117Z,100657.97
2023-03-04T15:32:54.518Z,100660.53
2023-03-04T15:36:03.301Z,100658.03
2023-03-04T15:39:09.164Z,100648.78
2023-03-04T15:42:14.810Z,100653.81
2023-03-04T15:45:23.937Z,100644.59
2023-03-04T15:48:29.502Z,100644.59
2023-03-04T15:51:36.769Z,100640.41
2023-03-04T15:54:41.950Z,100637.00
2023-03-04T15:57:48.529Z,100634.50
2023-03-04T16:00:55.489Z,100631.97
2023-03-04T16:04:02.277Z,100640.34
2023-03-04T16:07:09.680Z,100627.75
2023-03-04T16:10:20.554Z,100622.69
2023-03-04T16:13:26.195Z,100627.69
2023-03-04T16:16:31.646Z,100622.59
2023-03-04T16:19:36.873Z,100626.81
2023-03-04T16:22:44.443Z,100632.69
2023-03-04T16:25:51.269Z,100624.28
2023-03-04T16:28:58.742Z,100623.44
2023-03-04T16:32:03.658Z,100620.94
2023-03-04T16:35:09.436Z,100615.06
2023-03-04T16:38:26.157Z,100612.56
2023-03-04T16:41:31.891Z,100627.66
2023-03-04T16:44:37.132Z,100625.19
2023-03-04T16:47:42.368Z,100621.03
2023-03-04T16:50:47.357Z,100614.31
2023-03-04T16:53:56.254Z,100622.69
2023-03-04T16:57:02.115Z,100624.44
2023-03-04T17:00:08.948Z,100625.28
2023-03-04T17:03:14.499Z,100624.44
2023-03-04T17:06:21.068Z,100624.44
2023-03-04T17:09:27.570Z,100632.91
2023-03-04T17:12:32.780Z,100611.03
2023-03-04T17:15:40.491Z,100640.44
2023-03-04T17:18:46.491Z,100616.06
2023-03-04T17:21:52.372Z,100606.00
2023-03-04T17:24:58.644Z,100602.63
2023-03-04T17:28:03.729Z,100602.59
2023-03-04T17:31:11.399Z,100609.34
2023-03-04T17:34:16.372Z,100616.88
2023-03-04T17:37:21.499Z,100602.59
2023-03-04T17:40:28.390Z,100605.97
2023-03-04T17:43:33.943Z,100604.28
2023-03-04T17:46:39.409Z,100601.75
2023-03-04T17:49:44.927Z,100604.22
2023-03-04T17:52:50.020Z,100598.34
2023-03-04T17:55:57.896Z,100594.94
2023-03-04T17:59:05.510Z,100585.69
2023-03-04T18:02:15.974Z,100599.09
2023-03-04T18:05:22.135Z,100592.38
2023-03-04T18:08:27.270Z,100592.31
2023-03-04T18:11:36.083Z,100596.50
2023-03-04T18:14:41.281Z,100576.38
2023-03-04T18:17:47.622Z,100593.97
2023-03-04T18:20:59.936Z,100579.69
2023-03-04T18:24:05.954Z,100588.03
2023-03-04T18:27:13.214Z,100584.66
2023-03-04T18:30:21.093Z,100593.03
2023-03-04T18:33:26.050Z,100594.66
2023-03-04T18:36:32.018Z,100581.22
2023-03-04T18:39:38.406Z,100577.88
2023-03-04T18:42:45.285Z,100571.91
2023-03-04T18:45:53.337Z,100576.16
2023-03-04T18:49:02.164Z,100578.69
2023-03-04T18:52:07.416Z,100567.75
2023-03-04T18:55:13.799Z,100567.72
2023-03-04T18:58:20.176Z,100567.72
2023-03-04T19:01:26.112Z,100561.81
2023-03-04T19:04:31.661Z,100566.88
2023-03-04T19:07:37.089Z,100556.78
2023-03-04T19:10:42.651Z,100560.88
2023-03-04T19:13:49.110Z,100552.50
2023-03-04T19:16:54.233Z,100553.34
2023-03-04T19:19:59.462Z,100555.84
2023-03-04T19:23:05.801Z,100549.94
2023-03-04T19:26:13.828Z,100547.41
2023-03-04T19:29:20.619Z,100552.38
2023-03-04T19:32:26.304Z,100549.00
2023-03-04T19:35:32.833Z,100550.63
2023-03-04T19:38:38.141Z,100553.13
2023-03-04T19:41:43.308Z,100544.69
2023-03-04T19:44:49.815Z,100542.22
2023-03-04T19:47:56.822Z,100544.69
2023-03-04T19:51:04.864Z,100542.16
2023-03-04T19:54:10.584Z,100548.03
2023-03-04T19:57:15.633Z,100543.75
2023-03-04T20:00:24.274Z,100543.81
2023-03-04T20:03:29.505Z,100542.09
2023-03-04T20:06:37.993Z,100541.25
2023-03-04T20:09:43.646Z,100544.59
2023-03-04T20:12:49.342Z,100536.22
2023-03-04T20:15:56.098Z,100537.78
2023-03-04T20:19:01.547Z,100542.06
2023-03-04T20:22:07.107Z,100526.94
2023-03-04T20:25:12.380Z,100541.97
2023-03-04T20:28:17.480Z,100536.94
2023-03-04T20:31:26.188Z,100537.78
2023-03-04T20:34:31.446Z,100531.03
2023-03-04T20:37:36.764Z,100527.63
2023-03-04T20:40:42.518Z,100522.66
2023-03-04T20:43:47.562Z,100523.44
2023-03-04T20:46:54.310Z,100525.91
2023-03-04T20:49:59.741Z,100528.38
2023-03-04T20:53:04.574Z,100529.19
2023-03-04T20:56:09.744Z,100525.03
2023-03-04T20:59:15.234Z,100530.00
2023-03-04T21:02:23.508Z,100526.72
2023-03-04T21:05:28.654Z,100519.16
2023-03-04T21:08:33.645Z,100520.75
2023-03-04T21:11:40.701Z,100522.47
2023-03-04T21:14:46.280Z,100520.78
2023-03-04T21:17:52.738Z,100507.41
2023-03-04T21:20:57.889Z,100498.97
2023-03-04T21:24:03.033Z,100509.78
2023-03-04T21:27:08.595Z,100509.78
2023-03-04T21:30:14.818Z,100512.31
2023-03-04T21:33:21.644Z,100502.25
2023-03-04T21:36:27.261Z,100504.75
2023-03-04T21:39:33.146Z,100507.13
2023-03-04T21:42:38.707Z,100500.47
2023-03-04T21:45:44.394Z,100506.28
2023-03-04T21:48:50.817Z,100498.78
2023-03-04T21:51:56.110Z,100503.75
2023-03-04T21:55:02.127Z,100499.56
2023-03-04T21:58:07.023Z,100502.09
2023-03-04T22:01:12.964Z,100497.91
2023-03-04T22:04:19.359Z,100497.13
2023-03-04T22:07:24.939Z,100484.53
2023-03-04T22:10:31.201Z,100493.66
2023-03-04T22:13:37.353Z,100489.50
2023-03-04T22:16:59.021Z,100490.38
2023-03-04T22:20:06.796Z,100482.72
2023-03-04T22:23:13.808Z,100491.13
2023-03-04T22:26:21.140Z,100486.91
2023-03-04T22:29:27.182Z,100487.72
2023-03-04T22:32:32.345Z,100491.06
2023-03-04T22:35:41.060Z,100475.19
2023-03-04T22:38:45.934Z,100482.78
2023-03-04T22:41:51.510Z,100478.47
2023-03-04T22:44:57.198Z,100486.88
2023-03-04T22:48:02.591Z,100486.00
2023-03-04T22:51:10.257Z,100481.81
2023-03-04T22:54:16.282Z,100475.09
2023-03-04T22:57:21.570Z,100480.16
2023-03-04T23:00:28.563Z,100479.31
2023-03-04T23:03:33.696Z,100477.56
2023-03-04T23:06:40.472Z,100471.72
2023-03-04T23:09:45.712Z,100475.81
2023-03-04T23:12:50.882Z,100467.47
2023-03-04T23:15:56.092Z,100472.47
2023-03-04T23:19:01.315Z,100467.50
2023-03-04T23:22:07.966Z,100465.00
2023-03-04T23:25:13.789Z,100454.03
2023-03-04T23:28:19.103Z,100454.00
2023-03-04T23:31:25.648Z,100455.66
2023-03-04T23:34:32.730Z,100462.34
2023-03-04T23:37:39.008Z,100449.78
2023-03-04T23:40:44.145Z,100443.91
2023-03-04T23:43:51.394Z,100458.03
2023-03-04T23:46:56.859Z,100450.53
2023-03-04T23:50:03.917Z,100464.72
2023-03-04T23:53:10.558Z,100449.66
2023-03-04T23:56:16.929Z,100460.53
2023-03-04T23:59:22.171Z,100447.19
